Time;durP1;ratioP1;P1;durP2;ratioP2;P2;SDS_P1;SDS_P2;PMS_P1;PMS_P2;Temp;Humidity;BMP_temperature;BMP_pressure;BME280_temperature;BME280_humidity;BME280_pressure;Samples;Min_cycle;Max_cycle;Signal;HPM_P1;HPM_P2
2022/05/16 00:01:44;;;;;;;15.35;8.20;;;;;;;;;;4996642;28;20066;-66
2022/05/16 00:04:10;;;;;;;17.67;7.72;;;;;;;;;;4996583;28;20422;-70
2022/05/16 00:06:36;;;;;;;21.98;8.88;;;;;;;;;;4995957;28;20081;-68
2022/05/16 00:09:02;;;;;;;18.90;9.68;;;;;;;;;;4996575;28;20122;-66
2022/05/16 00:11:27;;;;;;;15.88;7.75;;;;;;;;;;4996450;28;20395;-64
2022/05/16 00:13:53;;;;;;;16.40;7.60;;;;;;;;;;4996428;28;20022;-66
2022/05/16 00:16:19;;;;;;;18.90;7.53;;;;;;;;;;4996455;28;20054;-69
2022/05/16 00:18:45;;;;;;;22.30;10.30;;;;;;;;;;4996492;28;20022;-69
2022/05/16 00:21:11;;;;;;;21.40;9.02;;;;;;;;;;4996166;28;20033;-70
2022/05/16 00:23:36;;;;;;;22.02;9.55;;;;;;;;;;4996299;28;20026;-69
2022/05/16 00:26:02;;;;;;;19.88;9.43;;;;;;;;;;4996184;28;20124;-70
2022/05/16 00:28:28;;;;;;;20.60;10.02;;;;;;;;;;4996184;28;20419;-70
2022/05/16 00:30:53;;;;;;;25.88;11.10;;;;;;;;;;4996395;28;20029;-68
2022/05/16 00:33:18;;;;;;;26.88;12.77;;;;;;;;;;4996336;28;20037;-70
2022/05/16 00:35:44;;;;;;;21.98;11.68;;;;;;;;;;4995892;28;20053;-67
2022/05/16 00:38:10;;;;;;;23.15;11.30;;;;;;;;;;4996006;28;20026;-67
2022/05/16 00:40:35;;;;;;;21.75;9.95;;;;;;;;;;4996232;28;20030;-68
2022/05/16 00:43:06;;;;;;;25.17;10.27;;;;;;;;;;4995880;28;20428;-69
2022/05/16 00:45:31;;;;;;;;;;;;;;;;;;4996339;28;20101;-67
2022/05/16 00:47:57;;;;;;;20.30;8.23;;;;;;;;;;4993960;28;20004;-69
2022/05/16 00:50:22;;;;;;;20.38;8.32;;;;;;;;;;4995650;28;20038;-70
2022/05/16 00:52:50;;;;;;;20.50;9.02;;;;;;;;;;4995849;28;20026;-68
2022/05/16 00:55:37;;;;;;;19.48;9.63;;;;;;;;;;4995833;28;20423;-70
2022/05/16 00:58:14;;;;;;;17.10;8.07;;;;;;;;;;4995740;28;20420;-69
2022/05/16 01:00:41;;;;;;;23.58;9.40;;;;;;;;;;4995646;28;20026;-65
2022/05/16 01:05:55;;;;;;;20.67;8.65;;;;;;;;;;4995366;28;20033;-70
2022/05/16 01:08:24;;;;;;;22.33;9.75;;;;;;;;;;4995424;28;20132;-70
2022/05/16 01:10:50;;;;;;;20.10;9.70;;;;;;;;;;4995514;28;20022;-67
2022/05/16 01:13:16;;;;;;;23.67;12.20;;;;;;;;;;4995374;28;20034;-70
2022/05/16 01:15:45;;;;;;;28.33;16.95;;;;;;;;;;4995308;28;20068;-66
2022/05/16 01:18:15;;;;;;;30.38;17.08;;;;;;;;;;4995280;28;20030;-66
2022/05/16 01:20:52;;;;;;;32.92;17.45;;;;;;;;;;4995196;28;20396;-71
2022/05/16 01:23:22;;;;;;;21.23;10.40;;;;;;;;;;4995352;28;20027;-70
2022/05/16 01:25:50;;;;;;;23.17;10.60;;;;;;;;;;4995141;28;20124;-71
2022/05/16 01:28:19;;;;;;;17.23;8.65;;;;;;;;;;4995097;28;20173;-66
2022/05/16 01:30:48;;;;;;;24.02;11.05;;;;;;;;;;4995099;28;20088;-71
2022/05/16 01:33:15;;;;;;;26.52;12.82;;;;;;;;;;4994943;28;20023;-70
2022/05/16 01:35:40;;;;;;;24.98;12.50;;;;;;;;;;4995099;28;20313;-70
2022/05/16 01:38:18;;;;;;;19.10;10.35;;;;;;;;;;4994913;28;20037;-70
2022/05/16 01:40:51;;;;;;;18.65;7.25;;;;;;;;;;4994961;28;20026;-70
2022/05/16 01:43:19;;;;;;;17.13;6.70;;;;;;;;;;4994995;28;20108;-71
2022/05/16 01:45:45;;;;;;;14.38;6.65;;;;;;;;;;4994674;28;20490;-70
2022/05/16 01:48:13;;;;;;;16.58;7.07;;;;;;;;;;4994610;28;20057;-70
2022/05/16 01:50:39;;;;;;;15.48;6.72;;;;;;;;;;4994782;28;20026;-70
2022/05/16 01:53:04;;;;;;;21.65;7.22;;;;;;;;;;4994627;28;20030;-70
2022/05/16 01:55:30;;;;;;;14.88;7.85;;;;;;;;;;4993345;28;20109;-71
2022/05/16 01:57:55;;;;;;;19.67;7.65;;;;;;;;;;4993957;28;20022;-71
2022/05/16 02:00:22;;;;;;;15.00;6.55;;;;;;;;;;4994235;28;20038;-71
2022/05/16 02:02:48;;;;;;;17.50;7.18;;;;;;;;;;4994147;28;20031;-69
2022/05/16 02:05:21;;;;;;;13.77;6.28;;;;;;;;;;4994450;28;20062;-71
2022/05/16 02:07:46;;;;;;;14.88;6.57;;;;;;;;;;4992820;28;20074;-70
2022/05/16 02:10:17;;;;;;;12.98;6.18;;;;;;;;;;4994448;28;20554;-70
2022/05/16 02:12:44;;;;;;;14.00;6.22;;;;;;;;;;4994317;28;20478;-71
2022/05/16 02:15:13;;;;;;;17.73;5.93;;;;;;;;;;4994161;28;20157;-71
2022/05/16 02:17:38;;;;;;;11.77;5.88;;;;;;;;;;4993947;28;20026;-70
2022/05/16 02:20:05;;;;;;;14.70;6.18;;;;;;;;;;4994215;28;20468;-70
2022/05/16 02:25:15;;;;;;;13.35;5.53;;;;;;;;;;4994158;28;20502;-70
2022/05/16 02:27:41;;;;;;;13.90;5.45;;;;;;;;;;4993904;28;20038;-71
2022/05/16 02:30:07;;;;;;;10.52;5.45;;;;;;;;;;4994054;28;20018;-67
2022/05/16 02:32:33;;;;;;;10.15;5.00;;;;;;;;;;4993603;28;20113;-69
2022/05/16 02:34:58;;;;;;;12.65;5.80;;;;;;;;;;4993962;28;20026;-70
2022/05/16 02:37:24;;;;;;;14.95;6.40;;;;;;;;;;4994041;28;20049;-69
2022/05/16 02:39:50;;;;;;;13.40;6.03;;;;;;;;;;4993699;28;20018;-70
2022/05/16 02:42:15;;;;;;;15.18;5.97;;;;;;;;;;4993792;28;20026;-70
2022/05/16 02:44:42;;;;;;;13.65;5.80;;;;;;;;;;4993746;28;20141;-66
2022/05/16 02:47:12;;;;;;;11.70;5.65;;;;;;;;;;4993263;28;20053;-70
2022/05/16 02:49:38;;;;;;;12.75;5.72;;;;;;;;;;4993622;28;20034;-70
2022/05/16 02:52:04;;;;;;;11.50;6.05;;;;;;;;;;4993474;28;20030;-63
2022/05/16 02:54:29;;;;;;;10.43;5.75;;;;;;;;;;4993557;28;20084;-69
2022/05/16 02:56:55;;;;;;;16.95;5.97;;;;;;;;;;4993222;28;20026;-69
2022/05/16 02:59:20;;;;;;;16.70;5.90;;;;;;;;;;4993517;28;20034;-70
2022/05/16 03:01:46;;;;;;;18.13;6.68;;;;;;;;;;4993218;28;20030;-67
2022/05/16 03:04:11;;;;;;;15.27;5.40;;;;;;;;;;4993261;28;20023;-67
2022/05/16 03:06:37;;;;;;;15.35;6.93;;;;;;;;;;4993052;28;20046;-70
2022/05/16 03:09:02;;;;;;;14.02;6.00;;;;;;;;;;4993421;28;20022;-71
2022/05/16 03:11:28;;;;;;;11.70;5.55;;;;;;;;;;4993268;28;20031;-70
2022/05/16 03:13:53;;;;;;;10.43;5.68;;;;;;;;;;4993349;28;20022;-66
2022/05/16 03:16:19;;;;;;;13.15;5.80;;;;;;;;;;4993086;28;20058;-68
2022/05/16 03:18:44;;;;;;;10.50;5.20;;;;;;;;;;4993400;28;20030;-69
2022/05/16 03:21:10;;;;;;;13.13;6.05;;;;;;;;;;4993296;28;20033;-71
2022/05/16 03:23:36;;;;;;;11.02;5.43;;;;;;;;;;4993177;28;20022;-69
2022/05/16 03:26:02;;;;;;;12.32;5.00;;;;;;;;;;4993140;28;20026;-66
2022/05/16 03:28:27;;;;;;;10.10;4.82;;;;;;;;;;4993188;28;20033;-65
2022/05/16 03:30:55;;;;;;;11.43;5.82;;;;;;;;;;4992945;28;20439;-69
2022/05/16 03:33:21;;;;;;;15.02;5.00;;;;;;;;;;4993085;28;20038;-68
2022/05/16 03:35:47;;;;;;;15.40;5.68;;;;;;;;;;4993154;28;20034;-70
2022/05/16 03:40:42;;;;;;;18.02;6.30;;;;;;;;;;4993281;28;20101;-64
2022/05/16 03:40:58;;;;;;;15.63;6.20;;;;;;;;;;4993015;28;20046;-69
2022/05/16 03:43:24;;;;;;;12.85;5.22;;;;;;;;;;4992810;28;20034;-69
2022/05/16 03:45:49;;;;;;;14.75;5.75;;;;;;;;;;4992716;28;20065;-68
2022/05/16 03:48:15;;;;;;;17.83;6.00;;;;;;;;;;4993095;28;20027;-70
2022/05/16 03:50:41;;;;;;;14.80;5.60;;;;;;;;;;4993023;28;20034;-70
2022/05/16 03:53:06;;;;;;;10.60;5.22;;;;;;;;;;4992921;28;20030;-70
2022/05/16 03:55:32;;;;;;;17.67;5.80;;;;;;;;;;4992877;28;20109;-70
2022/05/16 03:57:58;;;;;;;11.70;5.20;;;;;;;;;;4992827;28;20037;-68
2022/05/16 04:00:25;;;;;;;13.25;5.60;;;;;;;;;;4992597;28;20034;-71
2022/05/16 04:02:51;;;;;;;17.58;5.25;;;;;;;;;;4992753;28;20092;-70
2022/05/16 04:05:19;;;;;;;12.50;5.63;;;;;;;;;;4992745;28;20488;-69
2022/05/16 04:07:46;;;;;;;12.10;5.25;;;;;;;;;;4992395;28;20054;-71
2022/05/16 04:10:13;;;;;;;12.95;5.45;;;;;;;;;;4992768;28;20054;-68
2022/05/16 04:12:38;;;;;;;11.65;5.00;;;;;;;;;;4992750;28;20029;-71
2022/05/16 04:15:05;;;;;;;14.77;5.93;;;;;;;;;;4992465;28;20479;-71
2022/05/16 04:17:30;;;;;;;14.50;5.80;;;;;;;;;;4992749;28;20088;-70
2022/05/16 04:19:56;;;;;;;13.98;5.22;;;;;;;;;;4992802;28;20023;-71
2022/05/16 04:22:22;;;;;;;17.45;5.97;;;;;;;;;;4994181;28;20097;-70
2022/05/16 04:24:47;;;;;;;10.85;5.75;;;;;;;;;;4996356;28;20412;-70
2022/05/16 04:27:13;;;;;;;16.13;5.75;;;;;;;;;;4995917;28;20037;-70
2022/05/16 04:29:39;;;;;;;11.27;5.63;;;;;;;;;;4996163;28;20044;-69
2022/05/16 04:32:06;;;;;;;11.57;6.40;;;;;;;;;;4995973;28;20030;-71
2022/05/16 04:34:31;;;;;;;15.60;5.97;;;;;;;;;;4996135;28;20026;-70
2022/05/16 04:36:57;;;;;;;15.00;6.38;;;;;;;;;;4996062;28;20328;-69
2022/05/16 04:39:23;;;;;;;12.35;5.45;;;;;;;;;;4996112;28;20464;-71
2022/05/16 04:44:36;;;;;;;12.18;6.13;;;;;;;;;;4995918;28;20025;-70
2022/05/16 04:47:03;;;;;;;11.85;5.60;;;;;;;;;;4995774;28;20040;-70
2022/05/16 04:49:30;;;;;;;13.07;5.38;;;;;;;;;;4995870;28;20022;-68
2022/05/16 04:51:56;;;;;;;16.50;5.88;;;;;;;;;;4995611;28;20109;-69
2022/05/16 04:54:21;;;;;;;14.15;5.60;;;;;;;;;;4995721;28;20084;-70
2022/05/16 04:56:47;;;;;;;11.70;5.43;;;;;;;;;;4995363;28;20365;-68
2022/05/16 04:59:13;;;;;;;12.40;5.30;;;;;;;;;;4995530;28;20460;-68
2022/05/16 05:01:39;;;;;;;12.50;6.82;;;;;;;;;;4995385;28;20069;-68
2022/05/16 05:04:05;;;;;;;11.63;5.60;;;;;;;;;;4995460;28;20023;-66
2022/05/16 05:06:31;;;;;;;14.13;5.90;;;;;;;;;;4995023;28;20487;-69
2022/05/16 05:08:56;;;;;;;17.52;6.32;;;;;;;;;;4995446;28;20096;-70
2022/05/16 05:16:51;;;;;;;17.55;7.03;;;;;;;;;;4995409;28;20041;-67
2022/05/16 05:19:17;;;;;;;23.38;8.10;;;;;;;;;;4995253;28;20030;-70
2022/05/16 05:21:42;;;;;;;19.80;7.45;;;;;;;;;;4995127;28;20026;-71
2022/05/16 05:24:09;;;;;;;19.52;7.65;;;;;;;;;;4994980;28;20054;-70
2022/05/16 05:26:35;;;;;;;22.27;7.80;;;;;;;;;;4993495;28;20096;-70
2022/05/16 05:29:01;;;;;;;19.27;7.45;;;;;;;;;;4995042;28;20027;-67
2022/05/16 05:31:26;;;;;;;22.83;7.35;;;;;;;;;;4994910;28;20022;-70
2022/05/16 05:33:54;;;;;;;18.00;7.28;;;;;;;;;;4994740;28;20113;-66
2022/05/16 05:36:19;;;;;;;16.67;7.82;;;;;;;;;;4994949;28;20064;-64
2022/05/16 05:38:47;;;;;;;25.92;7.38;;;;;;;;;;4994939;28;20521;-65
2022/05/16 05:41:12;;;;;;;12.77;6.40;;;;;;;;;;4994510;28;20483;-70
2022/05/16 05:43:38;;;;;;;17.48;6.43;;;;;;;;;;4994738;28;20030;-69
2022/05/16 05:46:04;;;;;;;12.93;6.65;;;;;;;;;;4994650;28;20034;-68
2022/05/16 05:48:30;;;;;;;13.80;4.97;;;;;;;;;;4994520;28;20093;-70
2022/05/16 05:50:56;;;;;;;14.40;4.80;;;;;;;;;;4994539;28;20054;-68
2022/05/16 05:53:21;;;;;;;16.48;4.65;;;;;;;;;;4994397;28;20058;-71
2022/05/16 05:55:47;;;;;;;9.48;4.43;;;;;;;;;;4994401;28;20030;-65
2022/05/16 05:58:16;;;;;;;12.60;3.83;;;;;;;;;;4994526;28;20026;-71
2022/05/16 06:00:42;;;;;;;9.63;3.92;;;;;;;;;;4994511;28;20062;-70
2022/05/16 06:03:08;;;;;;;17.80;4.90;;;;;;;;;;4994245;28;20032;-67
2022/05/16 06:05:33;;;;;;;12.88;3.97;;;;;;;;;;4994294;28;20464;-69
2022/05/16 06:07:59;;;;;;;10.02;3.10;;;;;;;;;;4993987;28;20047;-69
2022/05/16 06:10:24;;;;;;;7.95;2.90;;;;;;;;;;4994224;28;20054;-72
2022/05/16 06:12:51;;;;;;;6.25;2.83;;;;;;;;;;4994226;28;20034;-66
2022/05/16 06:15:16;;;;;;;8.68;2.78;;;;;;;;;;4992720;28;20069;-70
2022/05/16 06:17:43;;;;;;;9.57;2.63;;;;;;;;;;4992752;28;20464;-71
2022/05/16 06:20:10;;;;;;;9.25;2.60;;;;;;;;;;4996137;28;20034;-70
2022/05/16 06:22:37;;;;;;;14.45;2.83;;;;;;;;;;5013548;28;20022;-70
2022/05/16 06:25:34;;;;;;;9.48;3.25;;;;;;;;;;5011975;28;20043;-64
2022/05/16 06:28:02;;;;;;;6.32;2.00;;;;;;;;;;5004526;28;20061;-71
2022/05/16 06:30:29;;;;;;;5.35;2.50;;;;;;;;;;5000310;28;20177;-64
2022/05/16 06:32:54;;;;;;;4.63;1.80;;;;;;;;;;4993780;28;20038;-68
2022/05/16 06:35:20;;;;;;;6.85;2.08;;;;;;;;;;4993774;28;20074;-67
2022/05/16 06:37:46;;;;;;;6.10;1.77;;;;;;;;;;4993487;28;20030;-67
2022/05/16 06:40:13;;;;;;;8.65;1.83;;;;;;;;;;4997296;28;20052;-69
2022/05/16 06:42:38;;;;;;;8.27;2.33;;;;;;;;;;5002851;28;20105;-69
2022/05/16 06:45:06;;;;;;;5.75;2.10;;;;;;;;;;5000946;28;20105;-66
2022/05/16 06:47:31;;;;;;;8.85;2.53;;;;;;;;;;5001034;28;20112;-66
2022/05/16 06:49:56;;;;;;;8.52;2.10;;;;;;;;;;5009498;28;20591;-66
2022/05/16 06:52:24;;;;;;;9.43;1.80;;;;;;;;;;5012776;28;20022;-67
2022/05/16 06:54:50;;;;;;;5.90;1.90;;;;;;;;;;5012911;28;20026;-68
2022/05/16 06:57:16;;;;;;;9.32;1.92;;;;;;;;;;4996656;28;20113;-65
2022/05/16 06:59:42;;;;;;;5.90;1.60;;;;;;;;;;4989744;28;20050;-67
2022/05/16 07:02:07;;;;;;;5.55;2.10;;;;;;;;;;4988983;28;20144;-64
2022/05/16 07:04:34;;;;;;;7.15;1.92;;;;;;;;;;4989172;28;20026;-67
2022/05/16 07:07:00;;;;;;;18.17;3.25;;;;;;;;;;4988425;28;20050;-63
2022/05/16 07:09:26;;;;;;;6.05;1.83;;;;;;;;;;4989480;28;20029;-66
2022/05/16 07:11:51;;;;;;;5.50;1.88;;;;;;;;;;4988719;28;20022;-63
2022/05/16 07:14:17;;;;;;;6.10;1.95;;;;;;;;;;4989701;28;20040;-66
2022/05/16 07:16:42;;;;;;;6.85;2.30;;;;;;;;;;4988574;28;20025;-68
2022/05/16 07:19:07;;;;;;;10.10;2.05;;;;;;;;;;4989383;28;20892;-68
2022/05/16 07:21:34;;;;;;;5.88;1.83;;;;;;;;;;4989452;28;20043;-63
2022/05/16 07:24:00;;;;;;;11.63;3.10;;;;;;;;;;4989708;28;20101;-67
2022/05/16 07:29:09;;;;;;;7.72;2.42;;;;;;;;;;4988320;28;20466;-63
2022/05/16 07:31:36;;;;;;;6.15;2.00;;;;;;;;;;4988931;28;20054;-63
2022/05/16 07:34:02;;;;;;;5.00;2.03;;;;;;;;;;4988105;28;20026;-65
2022/05/16 07:36:28;;;;;;;6.15;2.25;;;;;;;;;;4989274;28;20108;-67
2022/05/16 07:38:53;;;;;;;2.75;1.73;;;;;;;;;;4989851;28;20030;-63
2022/05/16 07:41:19;;;;;;;7.53;1.98;;;;;;;;;;4992692;28;20026;-66
2022/05/16 07:43:45;;;;;;;5.82;2.05;;;;;;;;;;4992684;28;20027;-62
2022/05/16 07:46:10;;;;;;;6.95;2.35;;;;;;;;;;4992781;28;20035;-66
2022/05/16 07:48:36;;;;;;;7.70;1.95;;;;;;;;;;4992754;28;20026;-67
2022/05/16 07:51:01;;;;;;;7.15;1.90;;;;;;;;;;4992564;28;20026;-67
2022/05/16 07:53:27;;;;;;;10.40;2.10;;;;;;;;;;4992747;28;20053;-67
2022/05/16 07:55:55;;;;;;;5.45;2.08;;;;;;;;;;4983847;28;20038;-67
2022/05/16 07:58:22;;;;;;;7.13;2.25;;;;;;;;;;4992628;28;20030;-64
2022/05/16 08:00:50;;;;;;;8.82;2.35;;;;;;;;;;4992731;28;20030;-62
2022/05/16 08:03:18;;;;;;;7.85;2.45;;;;;;;;;;4991824;28;20019;-67
2022/05/16 08:05:43;;;;;;;6.72;1.90;;;;;;;;;;4992404;28;20030;-66
2022/05/16 08:10:56;;;;;;;7.80;1.98;;;;;;;;;;4992411;28;20395;-64
2022/05/16 08:13:22;;;;;;;6.68;2.33;;;;;;;;;;4992448;28;20030;-63
2022/05/16 08:15:47;;;;;;;6.20;1.98;;;;;;;;;;4991546;28;20030;-67
2022/05/16 08:18:14;;;;;;;5.85;1.83;;;;;;;;;;4992316;28;20037;-68
2022/05/16 08:20:44;;;;;;;6.18;2.10;;;;;;;;;;4993087;28;20034;-67
2022/05/16 08:23:16;;;;;;;7.43;1.88;;;;;;;;;;4992266;28;20528;-66
2022/05/16 08:25:45;;;;;;;7.80;1.95;;;;;;;;;;4992618;28;20040;-66
2022/05/16 08:28:11;;;;;;;9.60;2.33;;;;;;;;;;4992701;28;20549;-66
2022/05/16 08:30:37;;;;;;;7.88;2.15;;;;;;;;;;4991081;28;20061;-67
2022/05/16 08:33:03;;;;;;;8.05;2.10;;;;;;;;;;4992070;28;20555;-67
2022/05/16 08:35:30;;;;;;;4.53;1.83;;;;;;;;;;4991924;28;20022;-67
2022/05/16 08:41:05;;;;;;;7.35;2.10;;;;;;;;;;4992201;28;20034;-63
2022/05/16 08:43:50;;;;;;;7.63;1.70;;;;;;;;;;4992309;28;20349;-64
2022/05/16 08:46:31;;;;;;;10.00;2.15;;;;;;;;;;4992906;28;20034;-64
2022/05/16 08:49:07;;;;;;;7.25;1.75;;;;;;;;;;4992157;28;20479;-64
2022/05/16 08:51:33;;;;;;;6.88;1.90;;;;;;;;;;4992173;28;20448;-62
2022/05/16 08:54:17;;;;;;;6.90;1.95;;;;;;;;;;4991717;28;20102;-65
2022/05/16 08:56:46;;;;;;;6.72;1.98;;;;;;;;;;4992520;28;20030;-62
2022/05/16 08:59:23;;;;;;;7.40;1.90;;;;;;;;;;4991736;28;20026;-65
2022/05/16 09:01:52;;;;;;;7.15;1.90;;;;;;;;;;4991944;28;20363;-63
2022/05/16 09:04:20;;;;;;;6.35;2.00;;;;;;;;;;4992065;28;20030;-65
2022/05/16 09:07:01;;;;;;;8.93;2.08;;;;;;;;;;4991866;28;20125;-66
2022/05/16 09:10:00;;;;;;;6.65;2.10;;;;;;;;;;4991882;28;20072;-63
2022/05/16 09:12:32;;;;;;;4.75;2.00;;;;;;;;;;4993163;28;20050;-62
2022/05/16 09:15:10;;;;;;;5.75;1.63;;;;;;;;;;4993953;28;20471;-63
2022/05/16 09:18:06;;;;;;;7.82;1.90;;;;;;;;;;4994500;28;20037;-65
2022/05/16 09:20:53;;;;;;;5.68;1.70;;;;;;;;;;4975645;28;20026;-62
2022/05/16 09:23:22;;;;;;;7.65;2.17;;;;;;;;;;4988560;28;20100;-65
2022/05/16 09:26:25;;;;;;;9.60;2.13;;;;;;;;;;4994846;28;20666;-62
2022/05/16 09:28:58;;;;;;;9.75;1.88;;;;;;;;;;4994850;28;20030;-62
2022/05/16 09:31:31;;;;;;;6.85;2.13;;;;;;;;;;4992222;28;20049;-64
2022/05/16 09:33:59;;;;;;;6.18;2.20;;;;;;;;;;4994448;28;20037;-63
2022/05/16 09:36:41;;;;;;;7.93;2.10;;;;;;;;;;4994596;28;20034;-65
2022/05/16 09:39:08;;;;;;;7.65;1.90;;;;;;;;;;4994580;28;20052;-64
2022/05/16 09:41:36;;;;;;;5.25;1.92;;;;;;;;;;4994370;28;20031;-64
2022/05/16 09:44:10;;;;;;;10.35;2.38;;;;;;;;;;4994612;28;20064;-66
2022/05/16 09:46:42;;;;;;;5.50;1.70;;;;;;;;;;4994250;28;20426;-65
2022/05/16 09:49:21;;;;;;;6.57;1.80;;;;;;;;;;4994425;28;20022;-63
2022/05/16 09:51:51;;;;;;;8.07;2.47;;;;;;;;;;4993841;28;20018;-65
2022/05/16 09:54:37;;;;;;;7.63;2.15;;;;;;;;;;4994130;28;20407;-67
2022/05/16 09:57:20;;;;;;;6.78;2.00;;;;;;;;;;4994109;28;20034;-63
2022/05/16 09:59:50;;;;;;;7.78;1.90;;;;;;;;;;4994343;28;20434;-63
2022/05/16 10:02:29;;;;;;;17.42;2.45;;;;;;;;;;4994098;28;20072;-67
2022/05/16 10:04:57;;;;;;;7.60;2.25;;;;;;;;;;4994083;28;20388;-63
2022/05/16 10:07:28;;;;;;;7.95;2.30;;;;;;;;;;4993576;28;20559;-65
2022/05/16 10:09:54;;;;;;;14.25;2.80;;;;;;;;;;4994323;28;20101;-67
2022/05/16 10:12:23;;;;;;;9.05;2.22;;;;;;;;;;4987370;28;20023;-65
2022/05/16 10:14:49;;;;;;;7.77;2.30;;;;;;;;;;4983020;28;20026;-66
2022/05/16 10:17:49;;;;;;;8.93;2.70;;;;;;;;;;4993802;28;20023;-66
2022/05/16 10:20:21;;;;;;;12.57;2.50;;;;;;;;;;4971666;28;20035;-66
2022/05/16 10:22:53;;;;;;;12.02;2.67;;;;;;;;;;4972203;28;20031;-66
2022/05/16 10:25:22;;;;;;;10.55;2.13;;;;;;;;;;4972157;28;20480;-64
2022/05/16 10:27:51;;;;;;;12.45;3.30;;;;;;;;;;4971969;28;20039;-66
2022/05/16 10:30:22;;;;;;;9.90;2.53;;;;;;;;;;4971962;28;20062;-66
2022/05/16 10:35:55;;;;;;;11.40;2.40;;;;;;;;;;4952621;29;20054;-65
2022/05/16 10:38:31;;;;;;;14.95;2.75;;;;;;;;;;4952858;29;20038;-63
2022/05/16 10:41:00;;;;;;;11.45;2.85;;;;;;;;;;4952358;29;20038;-67
2022/05/16 10:43:51;;;;;;;9.40;2.55;;;;;;;;;;4952290;29;20150;-64
2022/05/16 10:46:25;;;;;;;8.82;2.50;;;;;;;;;;4952093;29;20039;-64
2022/05/16 10:48:57;;;;;;;9.50;2.50;;;;;;;;;;4952126;29;20031;-64
2022/05/16 10:51:33;;;;;;;10.77;2.53;;;;;;;;;;4952419;29;20074;-65
2022/05/16 10:54:05;;;;;;;10.88;3.35;;;;;;;;;;4952312;29;20097;-63
2022/05/16 10:56:54;;;;;;;7.60;2.65;;;;;;;;;;4984785;28;20535;-67
2022/05/16 10:59:48;;;;;;;16.90;2.75;;;;;;;;;;4971274;28;20043;-67
2022/05/16 11:02:17;;;;;;;9.13;2.90;;;;;;;;;;4970504;28;20030;-65
2022/05/16 11:04:51;;;;;;;9.32;2.47;;;;;;;;;;4968925;28;20043;-65
2022/05/16 11:07:53;;;;;;;11.85;2.50;;;;;;;;;;4982927;28;20065;-67
2022/05/16 11:10:45;;;;;;;13.90;3.20;;;;;;;;;;4990911;28;20034;-67
2022/05/16 11:13:16;;;;;;;7.95;2.53;;;;;;;;;;4990047;28;20022;-68
2022/05/16 11:15:54;;;;;;;9.77;2.30;;;;;;;;;;4990171;28;20030;-66
2022/05/16 11:18:41;;;;;;;8.82;2.53;;;;;;;;;;4990775;28;20030;-65
2022/05/16 11:21:42;;;;;;;8.40;2.55;;;;;;;;;;4959659;28;20031;-65
2022/05/16 11:24:51;;;;;;;9.60;2.63;;;;;;;;;;4967508;28;20031;-64
2022/05/16 11:27:30;;;;;;;8.52;2.40;;;;;;;;;;4929309;29;20517;-65
2022/05/16 11:30:17;;;;;;;10.27;2.35;;;;;;;;;;4930251;29;20116;-66
2022/05/16 11:33:24;;;;;;;6.28;2.22;;;;;;;;;;4924138;29;20035;-66
2022/05/16 11:35:53;;;;;;;9.00;2.30;;;;;;;;;;4922284;29;20537;-66
2022/05/16 11:38:21;;;;;;;6.07;2.50;;;;;;;;;;4916444;29;20036;-66
2022/05/16 11:40:56;;;;;;;6.68;2.35;;;;;;;;;;4912842;29;20509;-66
2022/05/16 11:43:29;;;;;;;10.55;2.53;;;;;;;;;;4915581;29;20095;-65
2022/05/16 11:46:31;;;;;;;7.63;2.15;;;;;;;;;;4915909;29;20028;-67
2022/05/16 11:49:06;;;;;;;6.10;2.05;;;;;;;;;;4916106;29;20068;-66
2022/05/16 11:52:08;;;;;;;8.63;1.88;;;;;;;;;;4915568;29;20044;-67
2022/05/16 11:54:39;;;;;;;9.48;2.13;;;;;;;;;;4915903;29;20028;-67
2022/05/16 12:02:52;;;;;;;5.30;2.08;;;;;;;;;;4934767;28;20026;-67
2022/05/16 12:05:20;;;;;;;4.63;1.70;;;;;;;;;;4992183;28;20049;-67
2022/05/16 12:07:52;;;;;;;6.35;1.88;;;;;;;;;;4993773;28;20101;-66
2022/05/16 12:10:25;;;;;;;15.57;2.20;;;;;;;;;;4989072;28;20073;-66
2022/05/16 12:13:41;;;;;;;6.53;1.70;;;;;;;;;;4990743;28;20022;-66
2022/05/16 12:16:13;;;;;;;3.30;1.30;;;;;;;;;;4968197;28;20461;-67
2022/05/16 12:18:43;;;;;;;4.57;1.40;;;;;;;;;;4956547;28;20135;-66
2022/05/16 12:21:14;;;;;;;2.63;1.27;;;;;;;;;;4954410;28;20272;-66
2022/05/16 12:23:54;;;;;;;6.03;1.48;;;;;;;;;;4948856;28;20268;-63
2022/05/16 12:26:26;;;;;;;;;;;;;;;;;;4973890;28;20062;-62
2022/05/16 12:29:10;;;;;;;4.00;1.35;;;;;;;;;;4965331;28;19977;-66
2022/05/16 12:31:55;;;;;;;5.75;1.73;;;;;;;;;;4954353;28;20118;-63
2022/05/16 12:34:33;;;;;;;5.95;1.55;;;;;;;;;;4956887;28;20157;-64
2022/05/16 12:37:12;;;;;;;7.10;2.08;;;;;;;;;;4960044;28;20035;-66
2022/05/16 12:39:56;;;;;;;7.93;1.88;;;;;;;;;;4961601;28;20027;-67
2022/05/16 12:42:52;;;;;;;11.73;1.60;;;;;;;;;;4966959;28;20046;-63
2022/05/16 12:45:54;;;;;;;9.25;1.77;;;;;;;;;;4963999;28;20035;-63
2022/05/16 12:48:34;;;;;;;5.85;1.35;;;;;;;;;;4971778;28;20088;-62
2022/05/16 12:51:15;;;;;;;5.10;1.60;;;;;;;;;;4969128;28;20578;-67
2022/05/16 12:54:18;;;;;;;4.35;1.20;;;;;;;;;;4992093;28;20042;-66
2022/05/16 12:56:56;;;;;;;5.45;1.42;;;;;;;;;;4994101;28;20022;-62
2022/05/16 12:59:41;;;;;;;9.10;1.48;;;;;;;;;;4994562;28;20061;-64
2022/05/16 13:02:25;;;;;;;7.38;1.38;;;;;;;;;;4992233;28;20045;-63
2022/05/16 13:04:59;;;;;;;2.83;1.27;;;;;;;;;;4993087;28;20029;-63
2022/05/16 13:08:05;;;;;;;7.18;1.60;;;;;;;;;;4993963;28;20043;-66
2022/05/16 13:10:56;;;;;;;4.75;1.25;;;;;;;;;;4989965;28;20038;-64
2022/05/16 13:13:40;;;;;;;6.22;1.67;;;;;;;;;;4983944;28;20027;-64
2022/05/16 13:16:32;;;;;;;7.90;1.67;;;;;;;;;;4989856;28;20026;-63
2022/05/16 13:19:07;;;;;;;2.92;1.63;;;;;;;;;;4992572;28;20480;-66
2022/05/16 13:21:46;;;;;;;7.95;1.67;;;;;;;;;;4991636;28;20030;-67
2022/05/16 13:24:15;;;;;;;6.38;1.90;;;;;;;;;;4991187;28;20030;-65
2022/05/16 13:29:33;;;;;;;7.50;2.15;;;;;;;;;;4989582;28;20072;-67
2022/05/16 13:31:59;;;;;;;12.00;1.85;;;;;;;;;;4985549;28;20026;-64
2022/05/16 13:34:36;;;;;;;5.38;1.40;;;;;;;;;;4985410;28;20031;-63
2022/05/16 13:37:06;;;;;;;5.32;1.83;;;;;;;;;;4994637;28;20026;-65
2022/05/16 13:39:47;;;;;;;4.65;1.80;;;;;;;;;;4994504;28;20046;-66
2022/05/16 13:42:13;;;;;;;5.85;1.55;;;;;;;;;;4994557;28;20480;-65
2022/05/16 13:44:44;;;;;;;5.70;1.60;;;;;;;;;;4988038;28;20034;-65
2022/05/16 13:47:13;;;;;;;8.75;2.00;;;;;;;;;;4983632;28;20039;-67
2022/05/16 13:49:40;;;;;;;4.50;1.70;;;;;;;;;;4983062;28;20033;-68
2022/05/16 13:52:26;;;;;;;5.57;1.67;;;;;;;;;;4997667;28;20022;-67
2022/05/16 13:54:54;;;;;;;5.10;1.65;;;;;;;;;;5013705;28;20121;-65
2022/05/16 13:57:26;;;;;;;4.65;1.73;;;;;;;;;;4974985;28;20388;-69
2022/05/16 14:00:12;;;;;;;6.15;1.80;;;;;;;;;;4985275;28;20026;-68
2022/05/16 14:02:40;;;;;;;6.35;1.38;;;;;;;;;;4993979;28;20027;-67
2022/05/16 14:05:22;;;;;;;7.18;1.58;;;;;;;;;;4994008;28;20073;-64
2022/05/16 14:07:48;;;;;;;4.50;1.63;;;;;;;;;;4993186;28;20503;-68
2022/05/16 14:10:15;;;;;;;4.10;1.58;;;;;;;;;;4993926;28;20034;-68
2022/05/16 14:13:04;;;;;;;5.40;1.70;;;;;;;;;;4994104;28;20097;-67
2022/05/16 14:15:34;;;;;;;4.78;1.60;;;;;;;;;;4993920;28;20129;-67
2022/05/16 14:17:59;;;;;;;;;;;;;;;;;;4994575;28;20427;-70
2022/05/16 14:20:25;;;;;;;4.75;1.45;;;;;;;;;;4994029;28;19947;-67
2022/05/16 14:22:57;;;;;;;6.03;1.27;;;;;;;;;;4993657;28;20022;-68
2022/05/16 14:25:40;;;;;;;3.47;1.33;;;;;;;;;;4993770;28;20448;-67
2022/05/16 14:28:20;;;;;;;5.28;1.52;;;;;;;;;;4993754;28;20526;-67
2022/05/16 14:31:00;;;;;;;4.60;1.40;;;;;;;;;;4993729;28;20108;-66
2022/05/16 14:33:34;;;;;;;5.43;1.40;;;;;;;;;;4993742;28;20022;-65
2022/05/16 14:36:05;;;;;;;3.38;1.30;;;;;;;;;;4993775;28;20050;-63
2022/05/16 14:38:52;;;;;;;4.90;1.48;;;;;;;;;;4993674;28;20026;-67
2022/05/16 14:41:25;;;;;;;4.88;1.50;;;;;;;;;;5008602;28;20089;-68
2022/05/16 14:44:02;;;;;;;2.53;1.13;;;;;;;;;;4993609;28;20084;-64
2022/05/16 14:46:47;;;;;;;8.70;1.45;;;;;;;;;;4993476;28;20026;-66
2022/05/16 14:49:16;;;;;;;5.28;1.20;;;;;;;;;;4993674;28;20141;-66
2022/05/16 14:51:45;;;;;;;2.65;1.20;;;;;;;;;;4993036;28;20025;-67
2022/05/16 14:54:22;;;;;;;3.55;1.38;;;;;;;;;;4993581;28;20037;-67
2022/05/16 14:56:48;;;;;;;3.45;1.20;;;;;;;;;;4993518;28;20038;-67
2022/05/16 14:59:13;;;;;;;4.40;1.23;;;;;;;;;;4993655;28;20026;-66
2022/05/16 15:04:23;;;;;;;2.90;0.90;;;;;;;;;;4993456;28;20041;-68
2022/05/16 15:06:49;;;;;;;8.20;1.23;;;;;;;;;;5000705;28;20050;-66
2022/05/16 15:09:19;;;;;;;5.97;1.08;;;;;;;;;;5012909;28;20033;-66
2022/05/16 15:11:53;;;;;;;4.80;1.42;;;;;;;;;;5012919;28;20029;-68
2022/05/16 15:14:21;;;;;;;5.63;1.33;;;;;;;;;;5013083;28;20056;-66
2022/05/16 15:16:48;;;;;;;6.60;1.30;;;;;;;;;;5013078;28;20033;-67
2022/05/16 15:19:16;;;;;;;5.28;1.60;;;;;;;;;;5012641;28;20062;-65
2022/05/16 15:21:44;;;;;;;2.72;1.17;;;;;;;;;;5012414;28;20030;-67
2022/05/16 15:24:12;;;;;;;4.50;1.38;;;;;;;;;;5012761;28;20018;-67
2022/05/16 15:26:38;;;;;;;3.90;1.25;;;;;;;;;;5012717;28;20120;-66
2022/05/16 15:29:03;;;;;;;3.45;1.10;;;;;;;;;;5012649;28;20109;-68
2022/05/16 15:31:31;;;;;;;4.45;1.02;;;;;;;;;;5012576;28;20033;-65
2022/05/16 15:33:57;;;;;;;3.90;1.42;;;;;;;;;;5012588;28;20084;-64
2022/05/16 15:36:23;;;;;;;3.35;1.00;;;;;;;;;;5012625;28;20087;-64
2022/05/16 15:38:48;;;;;;;1.98;1.10;;;;;;;;;;5012663;28;20034;-64